Airfield :
LOGIN :

Register | Disclaimer

   EN    FR    IT 

 










Legend :    VFR   Marginal VFR   IFR   Intensive IFR   Very Intensive IFR
Visi :
Ceiling :
>= 8 km
>= 3000ft
5 to 8 km
1000 to 3000 ft
1500m to 5 km
500 to 1000 ft
800 to 1500m
200 to 500 ft
< 800m
< 200 ft
Symbols :   Thunderstorms  Fog  Heavy snow  Heavy precipitations  Wind > 20 kt
SIGMETs :     Misc.  Thunderstorms  Icing  Turbulence  Mountain Waves  Volcanic Ashes







- Airport Elevation : 20 ft


EBFN - Koksijde

CURRENT METAR :
  • 262255Z 03004KT 9999 FEW018CB SCT028 05/02 Q1018 REGS BLU

EXPIRED METARs :
  • 262225Z 05012KT 9999 FEW018CB SCT028 05/02 Q1018 REGS BLU
  • 262155Z 04012KT 9999 FEW018CB 05/02 Q1018 BLU
  • 262139Z 35010KT 9999 FEW018CB 06/01 Q1018 BLU FCST CANCEL
  • 262125Z 36011KT 9999 FEW018CB 07/01 Q1018 BLU BLU TEMPO WHT
  • 262055Z 35011KT 9999 FEW018CB 06/01 Q1018 BLU BLU TEMPO WHT
  • 262025Z 02010KT 9999 FEW018CB 06/01 Q1018 RERA BLU BLU TEMPO WHT

TAF TAF EBFN
Valid from the 26 at 19:00 until the 27 at 07:00 UTC


261541Z 2619/2707 36015KT 9999 FEW020 SCT025
TEMPO 2619/2707 6000 -SHRA SCT020TCU SCT025
BECMG 2703/2706 33010KT
No reported NOTAMs for that airfield.



MET'MAP, your aeronautical weather chart ! - Copyright ORBIFLY December 2007 - Disclaimer

ORBIFLY MET'MAP TEAM :

Programming & Development : Alexandra Zaïnal
Concept & Development : Baudouin d'Aumeries
Co-Development & Prog : Marc-Olivier Méhu
Technical & hardware support : Manuel Goepfert

Contact : metmap@orbifly.com




SOURCES & CREDITS :

   NOAA